Time;durP1;ratioP1;P1;durP2;ratioP2;P2;SDS_P1;SDS_P2;PMS_P1;PMS_P2;Temp;Humidity;BMP_temperature;BMP_pressure;BME280_temperature;BME280_humidity;BME280_pressure;Samples;Min_cycle;Max_cycle;Signal;HPM_P1;HPM_P2
2022/09/23 00:00:11;;;;;;;3.43;1.13;;;;;;;;;;5072137;28;20033;-70
2022/09/23 00:02:38;;;;;;;1.57;0.90;;;;;;;;;;5072553;28;20032;-70
2022/09/23 00:05:05;;;;;;;0.60;0.60;;;;;;;;;;5072672;28;20564;-70
2022/09/23 00:07:31;;;;;;;0.87;0.60;;;;;;;;;;5070059;28;20392;-70
2022/09/23 00:09:58;;;;;;;1.03;0.60;;;;;;;;;;5067430;28;20020;-70
2022/09/23 00:12:25;;;;;;;0.67;0.60;;;;;;;;;;5066602;28;20035;-70
2022/09/23 00:14:51;;;;;;;0.70;0.47;;;;;;;;;;5067263;28;20024;-70
2022/09/23 00:17:18;;;;;;;0.70;0.60;;;;;;;;;;5068713;28;20029;-70
2022/09/23 00:19:45;;;;;;;1.07;0.73;;;;;;;;;;5072288;28;20375;-70
2022/09/23 00:22:12;;;;;;;1.83;1.13;;;;;;;;;;5072343;28;20391;-70
2022/09/23 00:24:39;;;;;;;2.57;0.90;;;;;;;;;;5072283;28;20090;-70
2022/09/23 00:27:06;;;;;;;1.10;0.80;;;;;;;;;;5072451;28;20024;-70
2022/09/23 00:29:32;;;;;;;0.50;0.50;;;;;;;;;;5070460;28;20063;-70
2022/09/23 00:32:02;;;;;;;1.27;0.57;;;;;;;;;;5066906;28;20487;-70
2022/09/23 00:34:28;;;;;;;1.40;0.90;;;;;;;;;;5066656;28;20464;-70
2022/09/23 00:36:55;;;;;;;2.13;0.73;;;;;;;;;;5066332;28;20364;-70
2022/09/23 00:39:25;;;;;;;0.63;0.47;;;;;;;;;;5067957;28;20534;-70
2022/09/23 00:41:52;;;;;;;2.40;0.67;;;;;;;;;;5071756;28;20044;-70
2022/09/23 00:44:37;;;;;;;9.17;1.13;;;;;;;;;;5072275;28;20021;-69
2022/09/23 00:47:03;;;;;;;1.27;0.63;;;;;;;;;;5070961;28;20035;-70
2022/09/23 00:49:30;;;;;;;1.20;0.67;;;;;;;;;;5072136;28;20016;-70
2022/09/23 00:52:07;;;;;;;1.07;0.50;;;;;;;;;;5069745;28;20058;-70
2022/09/23 00:54:34;;;;;;;0.80;0.53;;;;;;;;;;5066448;28;20024;-70
2022/09/23 00:57:02;;;;;;;1.50;0.97;;;;;;;;;;5066636;28;20060;-70
2022/09/23 00:59:29;;;;;;;1.87;0.73;;;;;;;;;;5066652;28;20021;-70
2022/09/23 01:01:57;;;;;;;1.00;0.70;;;;;;;;;;5067344;28;20384;-70
2022/09/23 01:04:24;;;;;;;1.67;0.73;;;;;;;;;;5071995;28;20124;-69
2022/09/23 01:06:51;;;;;;;3.20;0.77;;;;;;;;;;5072122;28;20096;-70
2022/09/23 01:09:17;;;;;;;0.30;0.30;;;;;;;;;;5071935;28;20048;-69
2022/09/23 01:12:04;;;;;;;0.40;0.30;;;;;;;;;;5071961;28;20025;-70
2022/09/23 01:14:36;;;;;;;0.90;0.43;;;;;;;;;;5068740;28;20387;-69
2022/09/23 01:17:07;;;;;;;1.37;0.63;;;;;;;;;;5066736;28;20483;-70
2022/09/23 01:19:36;;;;;;;2.37;0.83;;;;;;;;;;5066513;28;20025;-70
2022/09/23 01:22:08;;;;;;;0.50;0.50;;;;;;;;;;5066553;28;20048;-70
2022/09/23 01:24:53;;;;;;;1.57;0.83;;;;;;;;;;5068635;28;20028;-70
2022/09/23 01:27:40;;;;;;;0.77;0.60;;;;;;;;;;5071612;28;20064;-70
2022/09/23 01:30:09;;;;;;;1.73;0.70;;;;;;;;;;5070653;28;20021;-70
2022/09/23 01:32:36;;;;;;;1.60;0.90;;;;;;;;;;5071883;28;20421;-69
2022/09/23 01:35:03;;;;;;;0.53;0.40;;;;;;;;;;5070824;28;20025;-69
2022/09/23 01:37:51;;;;;;;1.37;0.87;;;;;;;;;;5068079;28;20053;-70
2022/09/23 01:40:20;;;;;;;9.80;1.37;;;;;;;;;;5066419;28;20039;-70
2022/09/23 01:42:47;;;;;;;1.80;1.10;;;;;;;;;;5066264;28;20364;-69
2022/09/23 01:45:14;;;;;;;7.90;1.60;;;;;;;;;;5065795;28;20063;-70
2022/09/23 01:47:48;;;;;;;1.57;0.83;;;;;;;;;;5069845;28;20025;-69
2022/09/23 01:53:06;;;;;;;1.37;0.90;;;;;;;;;;5071530;28;20090;-69
2022/09/23 01:55:37;;;;;;;1.40;0.83;;;;;;;;;;5071336;28;20490;-69
2022/09/23 01:58:09;;;;;;;1.80;1.23;;;;;;;;;;5072523;28;20390;-69
2022/09/23 02:00:39;;;;;;;1.87;1.27;;;;;;;;;;5069609;28;20487;-70
2022/09/23 02:03:31;;;;;;;3.83;1.10;;;;;;;;;;5069609;28;20071;-70
2022/09/23 02:06:10;;;;;;;1.40;0.90;;;;;;;;;;5060245;28;20071;-69
2022/09/23 02:08:59;;;;;;;1.40;1.00;;;;;;;;;;5070030;28;20056;-69
2022/09/23 02:11:26;;;;;;;4.03;1.60;;;;;;;;;;5054847;28;20117;-69
2022/09/23 02:14:13;;;;;;;19.13;1.10;;;;;;;;;;5054475;28;20036;-69
2022/09/23 02:16:46;;;;;;;5.00;1.07;;;;;;;;;;5054856;28;20013;-69
2022/09/23 02:19:14;;;;;;;4.00;1.27;;;;;;;;;;5054830;28;20025;-69
2022/09/23 02:21:42;;;;;;;2.30;1.40;;;;;;;;;;5059055;28;20035;-69
2022/09/23 02:24:20;;;;;;;1.50;1.00;;;;;;;;;;5068950;28;20028;-69
2022/09/23 02:26:49;;;;;;;1.63;1.17;;;;;;;;;;5069249;28;20491;-69
2022/09/23 02:29:33;;;;;;;2.87;1.07;;;;;;;;;;5069470;28;20025;-69
2022/09/23 02:32:00;;;;;;;1.60;0.87;;;;;;;;;;5072296;28;20012;-69
2022/09/23 02:34:53;;;;;;;1.03;0.63;;;;;;;;;;5073891;28;20422;-69
2022/09/23 02:37:30;;;;;;;1.13;0.87;;;;;;;;;;5070620;28;20043;-69
2022/09/23 02:40:15;;;;;;;0.63;0.60;;;;;;;;;;5074327;28;20024;-69
2022/09/23 02:42:48;;;;;;;1.13;0.88;;;;;;;;;;5074344;28;20036;-69
2022/09/23 02:45:15;;;;;;;2.63;1.23;;;;;;;;;;5068999;28;20031;-69
2022/09/23 02:47:43;;;;;;;0.90;0.63;;;;;;;;;;5068678;28;20048;-69
2022/09/23 02:50:10;;;;;;;0.73;0.70;;;;;;;;;;5069042;28;20025;-69
2022/09/23 02:52:37;;;;;;;1.07;0.80;;;;;;;;;;5068423;28;20074;-69
2022/09/23 02:55:06;;;;;;;1.60;1.10;;;;;;;;;;5073054;28;20021;-69
2022/09/23 02:57:32;;;;;;;1.97;1.20;;;;;;;;;;5074121;28;20043;-69
2022/09/23 03:00:01;;;;;;;1.80;1.03;;;;;;;;;;5073925;28;20042;-69
2022/09/23 03:02:54;;;;;;;0.83;0.63;;;;;;;;;;5073455;28;20039;-70
2022/09/23 03:05:23;;;;;;;1.27;0.83;;;;;;;;;;5073833;28;20029;-69
2022/09/23 03:07:56;;;;;;;2.23;1.30;;;;;;;;;;5068454;28;20024;-69
2022/09/23 03:10:25;;;;;;;0.93;0.83;;;;;;;;;;5067740;28;20031;-69
2022/09/23 03:12:52;;;;;;;1.00;0.63;;;;;;;;;;5067927;28;20083;-69
2022/09/23 03:15:26;;;;;;;1.10;0.50;;;;;;;;;;5068220;28;20024;-69
2022/09/23 03:18:01;;;;;;;2.45;0.90;;;;;;;;;;5073253;28;20055;-69
2022/09/23 03:20:34;;;;;;;2.40;0.80;;;;;;;;;;5073629;28;20024;-69
2022/09/23 03:23:02;;;;;;;1.30;0.93;;;;;;;;;;5073460;28;20021;-69
2022/09/23 03:25:32;;;;;;;4.77;1.40;;;;;;;;;;5073109;28;20025;-69
2022/09/23 03:28:00;;;;;;;5.07;1.13;;;;;;;;;;5072280;28;20021;-69
2022/09/23 03:30:28;;;;;;;1.53;1.30;;;;;;;;;;5049656;28;20376;-69
2022/09/23 03:32:55;;;;;;;6.53;1.80;;;;;;;;;;5068107;28;20090;-69
2022/09/23 03:35:24;;;;;;;1.53;1.00;;;;;;;;;;5068123;28;20021;-69
2022/09/23 03:37:55;;;;;;;1.63;1.17;;;;;;;;;;5067768;28;20116;-69
2022/09/23 03:40:42;;;;;;;2.37;1.33;;;;;;;;;;5073233;28;20016;-69
2022/09/23 03:43:12;;;;;;;4.60;1.63;;;;;;;;;;5072788;28;20032;-69
2022/09/23 03:45:41;;;;;;;2.30;1.20;;;;;;;;;;5072860;28;20043;-69
2022/09/23 03:48:08;;;;;;;1.40;1.10;;;;;;;;;;5072082;28;20020;-69
2022/09/23 03:50:35;;;;;;;1.77;0.93;;;;;;;;;;5071560;28;20476;-69
2022/09/23 03:53:01;;;;;;;3.60;0.87;;;;;;;;;;5067593;28;20021;-69
2022/09/23 03:55:28;;;;;;;3.53;2.10;;;;;;;;;;5067457;28;20086;-69
2022/09/23 03:57:55;;;;;;;1.43;0.83;;;;;;;;;;5067289;28;20058;-69
2022/09/23 04:00:22;;;;;;;1.17;0.83;;;;;;;;;;5067646;28;20024;-69
2022/09/23 04:02:49;;;;;;;3.00;1.50;;;;;;;;;;5071865;28;20032;-69
2022/09/23 04:05:16;;;;;;;1.47;1.00;;;;;;;;;;5072145;28;20028;-69
2022/09/23 04:07:43;;;;;;;1.77;1.20;;;;;;;;;;5072690;28;20487;-69
2022/09/23 04:10:10;;;;;;;1.63;0.97;;;;;;;;;;5072684;28;20020;-69
2022/09/23 04:12:37;;;;;;;1.13;0.90;;;;;;;;;;5071742;28;20017;-69
2022/09/23 04:15:04;;;;;;;1.77;1.50;;;;;;;;;;5066857;28;20495;-69
2022/09/23 04:17:31;;;;;;;2.93;1.30;;;;;;;;;;5067194;28;20028;-69
2022/09/23 04:19:58;;;;;;;1.20;0.90;;;;;;;;;;5066663;28;20029;-69
2022/09/23 04:22:25;;;;;;;1.13;0.80;;;;;;;;;;5067039;28;20032;-69
2022/09/23 04:24:51;;;;;;;1.80;0.80;;;;;;;;;;5072404;28;20056;-69
2022/09/23 04:27:18;;;;;;;0.93;0.70;;;;;;;;;;5072505;28;20074;-69
2022/09/23 04:29:45;;;;;;;0.73;0.63;;;;;;;;;;5072092;28;20033;-69
2022/09/23 04:32:11;;;;;;;1.70;1.10;;;;;;;;;;5072350;28;20017;-69
2022/09/23 04:34:38;;;;;;;1.50;0.87;;;;;;;;;;5071948;28;20117;-69
2022/09/23 04:37:05;;;;;;;1.77;1.20;;;;;;;;;;5066811;28;20605;-69
2022/09/23 04:39:31;;;;;;;0.87;0.70;;;;;;;;;;5066948;28;20024;-69
2022/09/23 04:41:58;;;;;;;1.27;1.07;;;;;;;;;;5067097;28;20109;-69
2022/09/23 04:44:26;;;;;;;2.40;1.30;;;;;;;;;;5066798;28;20032;-69
2022/09/23 04:46:53;;;;;;;1.40;1.00;;;;;;;;;;5070864;28;20033;-69
2022/09/23 04:49:20;;;;;;;1.83;1.10;;;;;;;;;;5072191;28;20100;-69
2022/09/23 04:51:46;;;;;;;0.60;0.60;;;;;;;;;;5072147;28;20024;-69
2022/09/23 04:54:13;;;;;;;1.60;1.23;;;;;;;;;;5072124;28;20020;-68
2022/09/23 04:56:40;;;;;;;1.50;1.03;;;;;;;;;;5071845;28;20020;-68
2022/09/23 04:59:07;;;;;;;0.97;0.70;;;;;;;;;;5067401;28;20426;-68
2022/09/23 05:01:35;;;;;;;1.60;1.23;;;;;;;;;;5066658;28;20721;-69
2022/09/23 05:04:06;;;;;;;1.60;1.20;;;;;;;;;;5066339;28;20475;-69
2022/09/23 05:06:34;;;;;;;1.67;1.07;;;;;;;;;;5066436;28;20463;-69
2022/09/23 05:09:02;;;;;;;1.90;1.17;;;;;;;;;;5070753;28;20039;-68
2022/09/23 05:11:30;;;;;;;1.40;0.90;;;;;;;;;;5071846;28;20048;-68
2022/09/23 05:13:57;;;;;;;1.47;1.17;;;;;;;;;;5072048;28;20071;-68
2022/09/23 05:16:24;;;;;;;1.57;0.90;;;;;;;;;;5071589;28;20021;-68
2022/09/23 05:18:51;;;;;;;1.50;0.80;;;;;;;;;;5071740;28;20428;-69
2022/09/23 05:21:22;;;;;;;1.70;1.13;;;;;;;;;;5067467;28;20471;-69
2022/09/23 05:23:53;;;;;;;0.63;0.40;;;;;;;;;;5066517;28;20032;-68
2022/09/23 05:26:19;;;;;;;0.70;0.70;;;;;;;;;;5066540;28;20123;-68
2022/09/23 05:28:46;;;;;;;0.67;0.67;;;;;;;;;;5066044;28;20020;-68
2022/09/23 05:31:15;;;;;;;1.37;1.10;;;;;;;;;;5070287;28;20029;-68
2022/09/23 05:33:42;;;;;;;1.13;0.90;;;;;;;;;;5073636;28;20012;-68
2022/09/23 05:36:10;;;;;;;0.37;0.30;;;;;;;;;;5075489;28;20024;-69
2022/09/23 05:38:37;;;;;;;1.50;1.20;;;;;;;;;;5075667;28;20095;-68
2022/09/23 05:41:05;;;;;;;1.20;0.90;;;;;;;;;;5075107;28;20025;-68
2022/09/23 05:43:32;;;;;;;1.23;0.87;;;;;;;;;;5071249;28;20492;-69
2022/09/23 05:46:03;;;;;;;2.80;1.10;;;;;;;;;;5070071;28;20082;-68
2022/09/23 05:48:31;;;;;;;2.93;1.43;;;;;;;;;;5069681;28;20498;-68
2022/09/23 05:50:58;;;;;;;2.33;1.37;;;;;;;;;;5069994;28;20070;-68
2022/09/23 05:53:25;;;;;;;1.67;1.07;;;;;;;;;;5073071;28;20025;-68
2022/09/23 05:55:53;;;;;;;1.43;0.90;;;;;;;;;;5075210;28;20012;-68
2022/09/23 05:58:20;;;;;;;1.30;0.60;;;;;;;;;;5075178;28;20029;-68
2022/09/23 06:00:50;;;;;;;0.53;0.50;;;;;;;;;;5075157;28;20099;-68
2022/09/23 06:03:18;;;;;;;0.70;0.70;;;;;;;;;;5074751;28;20483;-68
2022/09/23 06:05:45;;;;;;;1.27;1.10;;;;;;;;;;5071054;28;20024;-68
2022/09/23 06:08:12;;;;;;;0.90;0.80;;;;;;;;;;5069705;28;20534;-68
2022/09/23 06:10:40;;;;;;;1.23;0.83;;;;;;;;;;5069537;28;20475;-68
2022/09/23 06:13:07;;;;;;;1.00;0.83;;;;;;;;;;5069608;28;20032;-68
2022/09/23 06:15:34;;;;;;;1.40;0.83;;;;;;;;;;5072510;28;20498;-68
2022/09/23 06:18:00;;;;;;;0.60;0.50;;;;;;;;;;5074343;28;20024;-68
2022/09/23 06:20:27;;;;;;;0.90;0.70;;;;;;;;;;5074198;28;20402;-69
2022/09/23 06:22:55;;;;;;;11.43;1.10;;;;;;;;;;5074487;28;20046;-68
2022/09/23 06:25:22;;;;;;;0.40;0.40;;;;;;;;;;5074689;28;20020;-68
2022/09/23 06:27:53;;;;;;;3.30;0.57;;;;;;;;;;5071310;28;20028;-68
2022/09/23 06:30:20;;;;;;;0.70;0.60;;;;;;;;;;5069119;28;20111;-68
2022/09/23 06:32:51;;;;;;;1.20;0.97;;;;;;;;;;5069255;28;20028;-68
2022/09/23 06:35:21;;;;;;;0.83;0.50;;;;;;;;;;5068936;28;20472;-68
2022/09/23 06:37:48;;;;;;;0.93;0.47;;;;;;;;;;5071748;28;20124;-68
2022/09/23 06:40:15;;;;;;;0.33;0.33;;;;;;;;;;5074343;28;20024;-68
2022/09/23 06:42:42;;;;;;;3.20;1.67;;;;;;;;;;5074012;28;20036;-68
2022/09/23 06:45:11;;;;;;;0.73;0.60;;;;;;;;;;5073039;28;20415;-68
2022/09/23 06:47:39;;;;;;;2.03;1.23;;;;;;;;;;5074271;28;20020;-68
2022/09/23 06:50:06;;;;;;;1.30;0.77;;;;;;;;;;5070715;28;20043;-68
2022/09/23 06:52:33;;;;;;;1.63;1.23;;;;;;;;;;5068827;28;20070;-68
2022/09/23 06:55:00;;;;;;;3.47;1.37;;;;;;;;;;5068428;28;20502;-68
2022/09/23 06:57:31;;;;;;;0.80;0.80;;;;;;;;;;5068825;28;20100;-68
2022/09/23 06:59:58;;;;;;;1.97;0.93;;;;;;;;;;5071279;28;20115;-68
2022/09/23 07:02:28;;;;;;;2.80;1.33;;;;;;;;;;5073935;28;20081;-67
2022/09/23 07:04:56;;;;;;;0.53;0.50;;;;;;;;;;5073358;28;20386;-68
2022/09/23 07:07:23;;;;;;;1.63;1.13;;;;;;;;;;5073924;28;20475;-68
2022/09/23 07:09:50;;;;;;;0.73;0.70;;;;;;;;;;5073841;28;20024;-68
2022/09/23 07:12:16;;;;;;;1.03;0.90;;;;;;;;;;5070985;28;20492;-68
2022/09/23 07:14:43;;;;;;;0.90;0.73;;;;;;;;;;5068520;28;20025;-68
2022/09/23 07:17:11;;;;;;;4.73;1.30;;;;;;;;;;5068039;28;20020;-68
2022/09/23 07:19:38;;;;;;;0.80;0.67;;;;;;;;;;5068255;28;20490;-67
2022/09/23 07:22:04;;;;;;;0.73;0.60;;;;;;;;;;5070138;28;20022;-67
2022/09/23 07:24:33;;;;;;;1.30;1.13;;;;;;;;;;5073559;28;20121;-67
2022/09/23 07:27:01;;;;;;;3.17;1.60;;;;;;;;;;5073599;28;20047;-67
2022/09/23 07:29:28;;;;;;;0.93;0.83;;;;;;;;;;5072994;28;20025;-67
2022/09/23 07:31:54;;;;;;;1.80;1.10;;;;;;;;;;5073429;28;20367;-67
2022/09/23 07:34:21;;;;;;;0.63;0.63;;;;;;;;;;5070695;28;20491;-67
2022/09/23 07:36:47;;;;;;;1.13;0.90;;;;;;;;;;5067729;28;20031;-68
2022/09/23 07:39:14;;;;;;;1.47;1.17;;;;;;;;;;5067851;28;20024;-67
2022/09/23 07:41:43;;;;;;;1.90;1.53;;;;;;;;;;5067498;28;20035;-68
2022/09/23 07:44:10;;;;;;;2.83;2.10;;;;;;;;;;5069646;28;20432;-67
2022/09/23 07:46:38;;;;;;;3.23;2.07;;;;;;;;;;5072972;28;20103;-67
2022/09/23 07:49:05;;;;;;;2.40;1.53;;;;;;;;;;5073113;28;20021;-67
2022/09/23 07:51:37;;;;;;;1.53;1.43;;;;;;;;;;5073075;28;20029;-68
2022/09/23 07:54:06;;;;;;;2.03;1.60;;;;;;;;;;5072559;28;20038;-67
2022/09/23 07:56:33;;;;;;;0.70;0.70;;;;;;;;;;5070376;28;20028;-67
2022/09/23 07:59:02;;;;;;;1.40;1.20;;;;;;;;;;5067592;28;20554;-67
2022/09/23 08:01:30;;;;;;;1.70;1.20;;;;;;;;;;5067346;28;20491;-67
2022/09/23 08:04:04;;;;;;;1.63;1.20;;;;;;;;;;5067326;28;20115;-67
2022/09/23 08:06:31;;;;;;;2.10;1.25;;;;;;;;;;5068998;28;20025;-67
2022/09/23 08:08:59;;;;;;;1.50;1.03;;;;;;;;;;5072694;28;20052;-67
2022/09/23 08:11:26;;;;;;;1.27;1.07;;;;;;;;;;5072613;28;20020;-66
2022/09/23 08:13:53;;;;;;;0.63;0.63;;;;;;;;;;5072677;28;20090;-67
2022/09/23 08:16:21;;;;;;;1.10;1.00;;;;;;;;;;5072692;28;20522;-67
2022/09/23 08:18:47;;;;;;;0.87;0.67;;;;;;;;;;5070045;28;20056;-67
2022/09/23 08:21:18;;;;;;;0.77;0.73;;;;;;;;;;5066624;28;20032;-68
2022/09/23 08:23:45;;;;;;;1.33;1.17;;;;;;;;;;5067210;28;20518;-67
2022/09/23 08:26:12;;;;;;;1.07;0.87;;;;;;;;;;5067118;28;20060;-67
2022/09/23 08:28:39;;;;;;;1.10;1.00;;;;;;;;;;5068402;28;20029;-67
2022/09/23 08:31:07;;;;;;;2.30;1.27;;;;;;;;;;5072032;28;20111;-66
2022/09/23 08:33:33;;;;;;;2.43;1.60;;;;;;;;;;5072253;28;20153;-67
2022/09/23 08:36:01;;;;;;;1.70;0.67;;;;;;;;;;5071894;28;20036;-68
2022/09/23 08:38:28;;;;;;;1.33;1.00;;;;;;;;;;5071919;28;20028;-67
2022/09/23 08:41:02;;;;;;;0.90;0.73;;;;;;;;;;5070275;28;20035;-67
2022/09/23 08:43:29;;;;;;;1.83;0.77;;;;;;;;;;5066905;28;20086;-67
2022/09/23 08:45:58;;;;;;;2.33;1.03;;;;;;;;;;5067077;28;20020;-66
2022/09/23 08:48:29;;;;;;;0.70;0.70;;;;;;;;;;5066864;28;20383;-68
2022/09/23 08:50:59;;;;;;;0.87;0.80;;;;;;;;;;5067919;28;20067;-67
2022/09/23 08:53:45;;;;;;;2.00;1.10;;;;;;;;;;5072067;28;20020;-66
2022/09/23 08:56:16;;;;;;;0.77;0.70;;;;;;;;;;5072169;28;20032;-67
2022/09/23 08:58:54;;;;;;;1.13;0.93;;;;;;;;;;5072052;28;20379;-67
2022/09/23 09:01:26;;;;;;;0.67;0.67;;;;;;;;;;5072272;28;20028;-67
2022/09/23 09:03:55;;;;;;;0.70;0.70;;;;;;;;;;5068655;28;20039;-67
2022/09/23 09:06:26;;;;;;;1.00;0.83;;;;;;;;;;5066809;28;20032;-67
2022/09/23 09:08:55;;;;;;;0.73;0.67;;;;;;;;;;5069183;28;20076;-67
2022/09/23 09:11:23;;;;;;;2.77;1.23;;;;;;;;;;5070146;28;20035;-67
2022/09/23 09:13:57;;;;;;;5.40;0.87;;;;;;;;;;5073653;28;20048;-67
2022/09/23 09:16:27;;;;;;;1.07;0.97;;;;;;;;;;5076043;28;20486;-66
2022/09/23 09:18:58;;;;;;;2.00;0.80;;;;;;;;;;5075668;28;20044;-67
2022/09/23 09:21:29;;;;;;;0.60;0.60;;;;;;;;;;5075822;28;20021;-67
2022/09/23 09:23:58;;;;;;;1.63;1.40;;;;;;;;;;5075435;28;20028;-67
2022/09/23 09:26:29;;;;;;;0.57;0.57;;;;;;;;;;5071971;28;20373;-67
2022/09/23 09:28:57;;;;;;;4.60;1.07;;;;;;;;;;5070142;28;20036;-67
2022/09/23 09:31:27;;;;;;;1.30;1.03;;;;;;;;;;5070120;28;20356;-66
2022/09/23 09:34:00;;;;;;;0.63;0.60;;;;;;;;;;5070344;28;20071;-67
2022/09/23 09:36:56;;;;;;;3.87;1.17;;;;;;;;;;5073540;28;20451;-67
2022/09/23 09:39:23;;;;;;;1.70;1.27;;;;;;;;;;5058514;28;20116;-66
2022/09/23 09:41:51;;;;;;;0.80;0.80;;;;;;;;;;5075430;28;20074;-67
2022/09/23 09:44:23;;;;;;;1.17;0.90;;;;;;;;;;5074873;28;20028;-67
2022/09/23 09:47:07;;;;;;;0.40;0.40;;;;;;;;;;5075481;28;20033;-66
2022/09/23 09:49:39;;;;;;;1.57;0.70;;;;;;;;;;5069615;28;20033;-67
2022/09/23 09:52:15;;;;;;;1.13;1.00;;;;;;;;;;5069974;28;20024;-66
2022/09/23 09:54:43;;;;;;;0.83;0.70;;;;;;;;;;5069920;28;20023;-67
2022/09/23 09:57:28;;;;;;;0.43;0.43;;;;;;;;;;5069943;28;20013;-67
2022/09/23 09:59:54;;;;;;;;;;;;;;;;;;5075241;28;20052;-66
2022/09/23 10:02:24;;;;;;;0.63;0.60;;;;;;;;;;5074920;28;19971;-66
2022/09/23 10:04:56;;;;;;;1.30;0.93;;;;;;;;;;5074791;28;20029;-66
2022/09/23 10:07:25;;;;;;;1.23;1.03;;;;;;;;;;5075096;28;20025;-66
2022/09/23 10:09:52;;;;;;;2.03;0.90;;;;;;;;;;5073901;28;20103;-66
2022/09/23 10:12:20;;;;;;;1.77;0.77;;;;;;;;;;5069281;28;20021;-66
2022/09/23 10:14:50;;;;;;;1.70;1.30;;;;;;;;;;5069531;28;20023;-67
2022/09/23 10:17:20;;;;;;;0.67;0.60;;;;;;;;;;5069257;28;20048;-66
2022/09/23 10:19:48;;;;;;;0.60;0.60;;;;;;;;;;5069826;28;20017;-66
2022/09/23 10:22:18;;;;;;;0.53;0.50;;;;;;;;;;5074660;28;20036;-66
2022/09/23 10:24:48;;;;;;;1.13;0.80;;;;;;;;;;5074580;28;20047;-66
2022/09/23 10:27:15;;;;;;;1.77;1.17;;;;;;;;;;5074506;28;20063;-66
2022/09/23 10:29:50;;;;;;;1.13;1.00;;;;;;;;;;5074671;28;20585;-66
2022/09/23 10:32:35;;;;;;;0.52;0.50;;;;;;;;;;5073063;28;20025;-67
2022/09/23 10:35:08;;;;;;;2.83;1.13;;;;;;;;;;5069165;28;20349;-66
2022/09/23 10:37:40;;;;;;;0.80;0.60;;;;;;;;;;5068595;28;20097;-66
2022/09/23 10:49:08;;;;;;;3.13;1.43;;;;;;;;;;5073952;28;20039;-66
2022/09/23 10:51:37;;;;;;;0.93;0.87;;;;;;;;;;5056529;28;20429;-66
2022/09/23 10:54:17;;;;;;;1.20;0.80;;;;;;;;;;5073588;28;20025;-66
2022/09/23 10:56:47;;;;;;;0.37;0.37;;;;;;;;;;5068859;28;20077;-66
2022/09/23 10:59:30;;;;;;;1.63;0.70;;;;;;;;;;5068873;28;20067;-66
2022/09/23 11:02:00;;;;;;;1.27;0.83;;;;;;;;;;5068091;28;20047;-66
2022/09/23 11:04:37;;;;;;;0.50;0.50;;;;;;;;;;5069818;28;20024;-66
2022/09/23 11:07:22;;;;;;;2.33;1.00;;;;;;;;;;5073927;28;20035;-66
2022/09/23 11:10:07;;;;;;;2.10;0.80;;;;;;;;;;5073681;28;20252;-66
2022/09/23 11:12:53;;;;;;;1.40;1.25;;;;;;;;;;5073539;28;20486;-66
2022/09/23 11:15:23;;;;;;;1.08;0.75;;;;;;;;;;5073127;28;20035;-66
2022/09/23 11:17:49;;;;;;;0.57;0.57;;;;;;;;;;5069848;28;20059;-66
2022/09/23 11:20:16;;;;;;;0.60;0.60;;;;;;;;;;5068619;28;20028;-66
2022/09/23 11:22:58;;;;;;;1.07;0.87;;;;;;;;;;5068386;28;20062;-66
2022/09/23 11:25:33;;;;;;;1.80;0.47;;;;;;;;;;5067878;28;20029;-66
2022/09/23 11:28:28;;;;;;;3.15;0.47;;;;;;;;;;5071617;28;20039;-66
2022/09/23 11:31:05;;;;;;;0.85;0.82;;;;;;;;;;5072928;28;20012;-66
2022/09/23 11:33:46;;;;;;;0.87;0.73;;;;;;;;;;5073131;28;20028;-66
2022/09/23 11:36:22;;;;;;;0.50;0.43;;;;;;;;;;5073133;28;20021;-66
2022/09/23 11:38:51;;;;;;;1.03;0.90;;;;;;;;;;5072004;28;20158;-66
2022/09/23 11:41:23;;;;;;;1.70;1.23;;;;;;;;;;5067861;28;20375;-66
2022/09/23 11:43:52;;;;;;;0.93;0.80;;;;;;;;;;5067618;28;20036;-66
2022/09/23 11:46:28;;;;;;;0.80;0.80;;;;;;;;;;5067789;28;20444;-66
2022/09/23 11:48:58;;;;;;;1.10;1.00;;;;;;;;;;5068167;28;20380;-65
2022/09/23 11:51:28;;;;;;;3.37;1.80;;;;;;;;;;5072674;28;20028;-66
2022/09/23 11:54:09;;;;;;;1.03;0.93;;;;;;;;;;5072825;28;20020;-66
2022/09/23 11:56:42;;;;;;;3.97;1.37;;;;;;;;;;5072966;28;20257;-66
2022/09/23 11:59:21;;;;;;;3.80;1.83;;;;;;;;;;5073013;28;20048;-65
2022/09/23 12:01:59;;;;;;;2.37;1.07;;;;;;;;;;5069543;28;20039;-66
2022/09/23 12:04:38;;;;;;;1.10;1.00;;;;;;;;;;5067469;28;20035;-66
2022/09/23 12:07:08;;;;;;;0.83;0.73;;;;;;;;;;5067624;28;20150;-66
2022/09/23 12:09:37;;;;;;;1.07;0.93;;;;;;;;;;5067425;28;20752;-66
2022/09/23 12:12:09;;;;;;;2.37;0.90;;;;;;;;;;5069838;28;20254;-66
2022/09/23 12:14:58;;;;;;;2.00;1.57;;;;;;;;;;5072536;28;20063;-66
2022/09/23 12:17:43;;;;;;;0.97;0.80;;;;;;;;;;5072472;28;20664;-66
2022/09/23 12:20:32;;;;;;;1.55;0.98;;;;;;;;;;5071982;28;20756;-66
2022/09/23 12:23:01;;;;;;;1.20;1.00;;;;;;;;;;5072245;28;20032;-66
2022/09/23 12:25:37;;;;;;;3.13;1.33;;;;;;;;;;5066747;28;20318;-66
2022/09/23 12:28:06;;;;;;;1.93;1.30;;;;;;;;;;5066747;28;20612;-66
2022/09/23 12:30:34;;;;;;;1.00;0.77;;;;;;;;;;5066893;28;20828;-66
2022/09/23 12:33:08;;;;;;;1.57;0.93;;;;;;;;;;5067163;28;20746;-66
2022/09/23 12:35:40;;;;;;;3.10;1.47;;;;;;;;;;5071979;28;20869;-66
2022/09/23 12:38:45;;;;;;;1.07;0.93;;;;;;;;;;5072231;28;20758;-66
2022/09/23 12:41:19;;;;;;;3.00;1.37;;;;;;;;;;4990902;28;20268;-65
2022/09/23 12:43:56;;;;;;;1.00;0.90;;;;;;;;;;4990280;28;20288;-65
2022/09/23 12:46:24;;;;;;;0.33;0.33;;;;;;;;;;5028786;28;20277;-66
2022/09/23 12:49:01;;;;;;;0.90;0.87;;;;;;;;;;5066788;28;20261;-66
2022/09/23 12:51:35;;;;;;;1.57;0.83;;;;;;;;;;5066710;28;20261;-66
2022/09/23 12:54:05;;;;;;;4.03;1.73;;;;;;;;;;5066777;28;20318;-66
2022/09/23 12:56:38;;;;;;;1.97;1.43;;;;;;;;;;5069276;28;20253;-66
2022/09/23 12:59:24;;;;;;;1.97;1.43;;;;;;;;;;5071202;28;20021;-65
2022/09/23 13:01:51;;;;;;;2.47;1.40;;;;;;;;;;5071991;28;20288;-66
2022/09/23 13:07:30;;;;;;;3.67;2.67;;;;;;;;;;5071976;28;20304;-66
2022/09/23 13:10:08;;;;;;;6.30;2.77;;;;;;;;;;5066406;28;20277;-66
2022/09/23 13:12:38;;;;;;;2.27;1.80;;;;;;;;;;5066753;28;20083;-66
2022/09/23 13:15:05;;;;;;;2.27;1.67;;;;;;;;;;5066736;28;20025;-67
2022/09/23 13:17:35;;;;;;;2.73;2.20;;;;;;;;;;5066757;28;20857;-66
2022/09/23 13:20:04;;;;;;;2.50;1.43;;;;;;;;;;5071975;28;20028;-66
2022/09/23 13:22:40;;;;;;;7.47;1.87;;;;;;;;;;5071259;28;20029;-66
2022/09/23 13:25:16;;;;;;;4.37;1.97;;;;;;;;;;5071879;28;20029;-66
2022/09/23 13:27:44;;;;;;;1.63;1.37;;;;;;;;;;5071693;28;20054;-66
2022/09/23 13:30:13;;;;;;;1.93;1.33;;;;;;;;;;5070208;28;20487;-66
2022/09/23 13:32:59;;;;;;;2.27;1.37;;;;;;;;;;5066102;28;20029;-67
2022/09/23 13:35:26;;;;;;;;;;;;;;;;;;5066829;28;20025;-66
2022/09/23 13:37:53;;;;;;;1.00;0.90;;;;;;;;;;5066512;28;19904;-67
2022/09/23 13:40:22;;;;;;;1.37;1.10;;;;;;;;;;5067789;28;20024;-67
2022/09/23 13:42:58;;;;;;;11.93;2.47;;;;;;;;;;5051747;28;20117;-66
2022/09/23 13:45:25;;;;;;;2.03;1.40;;;;;;;;;;5051107;28;20017;-67
2022/09/23 13:47:54;;;;;;;2.53;1.80;;;;;;;;;;5051650;28;20025;-67
2022/09/23 13:50:24;;;;;;;2.13;1.50;;;;;;;;;;5051646;28;20372;-67
2022/09/23 13:52:52;;;;;;;6.50;2.20;;;;;;;;;;5068697;28;20026;-68
2022/09/23 13:55:25;;;;;;;2.10;1.60;;;;;;;;;;5069294;28;20039;-68
2022/09/23 13:58:03;;;;;;;15.83;1.60;;;;;;;;;;5049550;28;20029;-67
2022/09/23 14:00:34;;;;;;;2.17;1.53;;;;;;;;;;5049936;28;20308;-67
2022/09/23 14:03:02;;;;;;;3.43;2.00;;;;;;;;;;5052147;28;20029;-67
2022/09/23 14:05:32;;;;;;;3.40;2.50;;;;;;;;;;5055661;28;20090;-68
2022/09/23 14:07:59;;;;;;;3.43;2.13;;;;;;;;;;5074712;28;20025;-68
2022/09/23 14:10:26;;;;;;;7.00;2.00;;;;;;;;;;5074792;28;20028;-68
2022/09/23 14:12:54;;;;;;;3.73;2.53;;;;;;;;;;5074818;28;20033;-68
2022/09/23 14:15:21;;;;;;;5.40;1.87;;;;;;;;;;5072289;28;20025;-68
2022/09/23 14:18:08;;;;;;;2.87;1.80;;;;;;;;;;5069282;28;20031;-68
2022/09/23 14:20:45;;;;;;;3.87;2.13;;;;;;;;;;5069009;28;20033;-68
2022/09/23 14:23:15;;;;;;;4.80;1.70;;;;;;;;;;5069036;28;20040;-68
2022/09/23 14:25:46;;;;;;;2.10;1.67;;;;;;;;;;5072517;28;20032;-68
2022/09/23 14:28:17;;;;;;;6.57;1.60;;;;;;;;;;5074571;28;20029;-67
2022/09/23 14:30:45;;;;;;;6.47;2.07;;;;;;;;;;5074208;28;20016;-68
2022/09/23 14:33:21;;;;;;;1.87;1.47;;;;;;;;;;5074777;28;20103;-68
2022/09/23 14:35:50;;;;;;;2.37;1.83;;;;;;;;;;5073897;28;20025;-68
2022/09/23 14:41:17;;;;;;;1.53;1.23;;;;;;;;;;5069047;28;20384;-68
2022/09/23 14:43:53;;;;;;;6.87;2.10;;;;;;;;;;5069083;28;20099;-68
2022/09/23 14:46:21;;;;;;;1.50;1.13;;;;;;;;;;5069023;28;20028;-68
2022/09/23 14:48:55;;;;;;;2.10;1.30;;;;;;;;;;5074149;28;20486;-68
2022/09/23 14:51:22;;;;;;;3.88;1.75;;;;;;;;;;5074052;28;20020;-68
2022/09/23 14:53:49;;;;;;;2.33;1.40;;;;;;;;;;5074385;28;20205;-68
2022/09/23 14:56:20;;;;;;;3.00;1.40;;;;;;;;;;5074187;28;20016;-68
2022/09/23 14:58:52;;;;;;;2.93;1.37;;;;;;;;;;5073379;28;20098;-68
2022/09/23 15:01:33;;;;;;;1.87;1.30;;;;;;;;;;5069004;28;20025;-68
2022/09/23 15:04:18;;;;;;;2.23;1.50;;;;;;;;;;5068473;28;20036;-68
2022/09/23 15:06:48;;;;;;;6.17;1.53;;;;;;;;;;5067694;28;20383;-68
2022/09/23 15:09:22;;;;;;;2.77;1.47;;;;;;;;;;5069844;28;20024;-68
2022/09/23 15:11:51;;;;;;;2.20;1.33;;;;;;;;;;5073723;28;20367;-68
2022/09/23 15:14:19;;;;;;;1.83;1.23;;;;;;;;;;5073708;28;20142;-69
2022/09/23 15:16:47;;;;;;;1.83;0.80;;;;;;;;;;5073855;28;20069;-69
2022/09/23 15:19:17;;;;;;;1.37;1.10;;;;;;;;;;5073797;28;20024;-69
2022/09/23 15:21:45;;;;;;;1.40;1.20;;;;;;;;;;5071458;28;20423;-69